sensor_id;sensor_type;location;lat;lon;timestamp;P1;durP1;ratioP1;P2;durP2;ratioP2
37907;SDS011;23740;51.550;6.846;2023-04-24T00:00:47;16.65;;;15.65;;
37907;SDS011;23740;51.550;6.846;2023-04-24T00:03:16;16.50;;;15.60;;
37907;SDS011;23740;51.550;6.846;2023-04-24T00:05:47;16.05;;;15.15;;
37907;SDS011;23740;51.550;6.846;2023-04-24T00:08:15;16.20;;;15.30;;
37907;SDS011;23740;51.550;6.846;2023-04-24T00:10:43;16.35;;;15.40;;
37907;SDS011;23740;51.550;6.846;2023-04-24T00:13:11;15.95;;;15.05;;
37907;SDS011;23740;51.550;6.846;2023-04-24T00:15:39;16.15;;;15.25;;
37907;SDS011;23740;51.550;6.846;2023-04-24T00:18:07;16.45;;;15.45;;
37907;SDS011;23740;51.550;6.846;2023-04-24T00:20:36;16.20;;;15.30;;
37907;SDS011;23740;51.550;6.846;2023-04-24T00:25:31;16.10;;;15.20;;
37907;SDS011;23740;51.550;6.846;2023-04-24T00:27:59;15.85;;;14.95;;
37907;SDS011;23740;51.550;6.846;2023-04-24T00:30:27;16.17;;;15.18;;
37907;SDS011;23740;51.550;6.846;2023-04-24T00:32:55;15.15;;;14.25;;
37907;SDS011;23740;51.550;6.846;2023-04-24T00:35:23;15.70;;;14.80;;
37907;SDS011;23740;51.550;6.846;2023-04-24T00:37:52;15.82;;;14.93;;
37907;SDS011;23740;51.550;6.846;2023-04-24T00:40:20;15.77;;;14.93;;
37907;SDS011;23740;51.550;6.846;2023-04-24T00:42:48;15.95;;;15.05;;
37907;SDS011;23740;51.550;6.846;2023-04-24T00:45:16;15.30;;;14.50;;
37907;SDS011;23740;51.550;6.846;2023-04-24T00:47:44;16.17;;;15.20;;
37907;SDS011;23740;51.550;6.846;2023-04-24T00:50:14;16.80;;;15.73;;
37907;SDS011;23740;51.550;6.846;2023-04-24T00:52:42;16.77;;;15.50;;
37907;SDS011;23740;51.550;6.846;2023-04-24T00:55:11;16.85;;;15.90;;
37907;SDS011;23740;51.550;6.846;2023-04-24T00:57:39;16.70;;;15.63;;
37907;SDS011;23740;51.550;6.846;2023-04-24T01:00:07;17.23;;;16.15;;
37907;SDS011;23740;51.550;6.846;2023-04-24T01:02:38;17.40;;;16.40;;
37907;SDS011;23740;51.550;6.846;2023-04-24T01:05:10;17.27;;;16.30;;
37907;SDS011;23740;51.550;6.846;2023-04-24T01:07:39;16.77;;;15.85;;
37907;SDS011;23740;51.550;6.846;2023-04-24T01:10:11;17.50;;;16.20;;
37907;SDS011;23740;51.550;6.846;2023-04-24T01:12:40;17.45;;;16.35;;
37907;SDS011;23740;51.550;6.846;2023-04-24T01:15:08;17.20;;;16.10;;
37907;SDS011;23740;51.550;6.846;2023-04-24T01:17:37;18.23;;;16.95;;
37907;SDS011;23740;51.550;6.846;2023-04-24T01:20:05;17.90;;;16.80;;
37907;SDS011;23740;51.550;6.846;2023-04-24T01:22:36;17.00;;;15.90;;
37907;SDS011;23740;51.550;6.846;2023-04-24T01:25:04;17.90;;;16.60;;
37907;SDS011;23740;51.550;6.846;2023-04-24T01:27:32;17.38;;;16.38;;
37907;SDS011;23740;51.550;6.846;2023-04-24T01:30:00;18.30;;;17.20;;
37907;SDS011;23740;51.550;6.846;2023-04-24T01:32:28;16.60;;;15.70;;
37907;SDS011;23740;51.550;6.846;2023-04-24T01:34:56;17.33;;;16.25;;
37907;SDS011;23740;51.550;6.846;2023-04-24T01:37:26;18.23;;;17.13;;
37907;SDS011;23740;51.550;6.846;2023-04-24T01:39:55;17.52;;;16.42;;
37907;SDS011;23740;51.550;6.846;2023-04-24T01:44:51;18.88;;;17.60;;
37907;SDS011;23740;51.550;6.846;2023-04-24T01:47:19;19.00;;;17.80;;
37907;SDS011;23740;51.550;6.846;2023-04-24T01:49:46;18.98;;;17.58;;
37907;SDS011;23740;51.550;6.846;2023-04-24T01:52:15;18.65;;;17.35;;
37907;SDS011;23740;51.550;6.846;2023-04-24T01:54:44;19.15;;;17.85;;
37907;SDS011;23740;51.550;6.846;2023-04-24T01:57:13;18.73;;;17.33;;
37907;SDS011;23740;51.550;6.846;2023-04-24T02:02:09;20.00;;;18.38;;
37907;SDS011;23740;51.550;6.846;2023-04-24T02:04:37;18.90;;;17.45;;
37907;SDS011;23740;51.550;6.846;2023-04-24T02:07:05;18.50;;;17.27;;
37907;SDS011;23740;51.550;6.846;2023-04-24T02:09:32;18.85;;;17.65;;
37907;SDS011;23740;51.550;6.846;2023-04-24T02:12:00;17.83;;;16.58;;
37907;SDS011;23740;51.550;6.846;2023-04-24T02:14:32;19.08;;;17.60;;
37907;SDS011;23740;51.550;6.846;2023-04-24T02:17:00;16.50;;;15.60;;
37907;SDS011;23740;51.550;6.846;2023-04-24T02:19:27;19.20;;;17.80;;
37907;SDS011;23740;51.550;6.846;2023-04-24T02:21:55;18.20;;;17.00;;
37907;SDS011;23740;51.550;6.846;2023-04-24T02:24:23;19.23;;;17.83;;
37907;SDS011;23740;51.550;6.846;2023-04-24T02:26:51;18.58;;;17.25;;
37907;SDS011;23740;51.550;6.846;2023-04-24T02:29:19;19.70;;;18.15;;
37907;SDS011;23740;51.550;6.846;2023-04-24T02:31:48;20.23;;;18.90;;
37907;SDS011;23740;51.550;6.846;2023-04-24T02:34:16;20.80;;;19.20;;
37907;SDS011;23740;51.550;6.846;2023-04-24T02:36:43;21.15;;;19.55;;
37907;SDS011;23740;51.550;6.846;2023-04-24T02:39:11;19.83;;;18.42;;
37907;SDS011;23740;51.550;6.846;2023-04-24T02:41:39;20.60;;;18.90;;
37907;SDS011;23740;51.550;6.846;2023-04-24T02:44:07;20.92;;;19.20;;
37907;SDS011;23740;51.550;6.846;2023-04-24T02:46:35;20.98;;;19.38;;
37907;SDS011;23740;51.550;6.846;2023-04-24T02:49:13;21.60;;;19.77;;
37907;SDS011;23740;51.550;6.846;2023-04-24T02:51:40;22.35;;;20.67;;
37907;SDS011;23740;51.550;6.846;2023-04-24T02:54:08;22.92;;;21.02;;
37907;SDS011;23740;51.550;6.846;2023-04-24T02:56:37;22.77;;;20.15;;
37907;SDS011;23740;51.550;6.846;2023-04-24T02:59:04;22.02;;;20.33;;
37907;SDS011;23740;51.550;6.846;2023-04-24T03:01:32;20.95;;;19.25;;
37907;SDS011;23740;51.550;6.846;2023-04-24T03:04:00;21.58;;;19.90;;
37907;SDS011;23740;51.550;6.846;2023-04-24T03:06:30;21.90;;;20.13;;
37907;SDS011;23740;51.550;6.846;2023-04-24T03:08:59;22.20;;;20.17;;
37907;SDS011;23740;51.550;6.846;2023-04-24T03:11:26;22.45;;;20.45;;
37907;SDS011;23740;51.550;6.846;2023-04-24T03:13:54;22.45;;;20.55;;
37907;SDS011;23740;51.550;6.846;2023-04-24T03:16:22;21.17;;;19.38;;
37907;SDS011;23740;51.550;6.846;2023-04-24T03:18:50;22.23;;;20.45;;
37907;SDS011;23740;51.550;6.846;2023-04-24T03:21:18;22.48;;;20.73;;
37907;SDS011;23740;51.550;6.846;2023-04-24T03:23:47;23.27;;;21.27;;
37907;SDS011;23740;51.550;6.846;2023-04-24T03:26:15;23.13;;;20.95;;
37907;SDS011;23740;51.550;6.846;2023-04-24T03:28:42;23.58;;;21.52;;
37907;SDS011;23740;51.550;6.846;2023-04-24T03:31:10;23.27;;;21.33;;
37907;SDS011;23740;51.550;6.846;2023-04-24T03:33:38;24.88;;;22.60;;
37907;SDS011;23740;51.550;6.846;2023-04-24T03:36:06;22.63;;;20.92;;
37907;SDS011;23740;51.550;6.846;2023-04-24T03:38:34;24.60;;;22.43;;
37907;SDS011;23740;51.550;6.846;2023-04-24T03:41:03;21.85;;;20.15;;
37907;SDS011;23740;51.550;6.846;2023-04-24T03:45:59;22.67;;;20.77;;
37907;SDS011;23740;51.550;6.846;2023-04-24T03:48:27;23.52;;;21.52;;
37907;SDS011;23740;51.550;6.846;2023-04-24T03:50:55;23.10;;;20.95;;
37907;SDS011;23740;51.550;6.846;2023-04-24T03:53:23;24.30;;;22.30;;
37907;SDS011;23740;51.550;6.846;2023-04-24T03:55:50;23.85;;;21.52;;
37907;SDS011;23740;51.550;6.846;2023-04-24T03:58:20;23.05;;;21.10;;
37907;SDS011;23740;51.550;6.846;2023-04-24T04:03:16;24.10;;;22.00;;
37907;SDS011;23740;51.550;6.846;2023-04-24T04:05:44;22.95;;;21.10;;
37907;SDS011;23740;51.550;6.846;2023-04-24T04:08:11;23.30;;;21.50;;
37907;SDS011;23740;51.550;6.846;2023-04-24T04:10:39;24.30;;;21.80;;
37907;SDS011;23740;51.550;6.846;2023-04-24T04:13:07;23.65;;;21.40;;
37907;SDS011;23740;51.550;6.846;2023-04-24T04:15:36;22.80;;;20.80;;
37907;SDS011;23740;51.550;6.846;2023-04-24T04:18:04;25.05;;;22.88;;
37907;SDS011;23740;51.550;6.846;2023-04-24T04:20:32;23.58;;;21.73;;
37907;SDS011;23740;51.550;6.846;2023-04-24T04:22:59;24.88;;;22.77;;
37907;SDS011;23740;51.550;6.846;2023-04-24T04:25:27;24.35;;;22.25;;
37907;SDS011;23740;51.550;6.846;2023-04-24T04:27:55;25.33;;;23.33;;
37907;SDS011;23740;51.550;6.846;2023-04-24T04:30:24;25.35;;;22.80;;
37907;SDS011;23740;51.550;6.846;2023-04-24T04:32:53;24.60;;;22.33;;
37907;SDS011;23740;51.550;6.846;2023-04-24T04:35:21;24.27;;;22.05;;
37907;SDS011;23740;51.550;6.846;2023-04-24T04:37:49;23.65;;;21.73;;
37907;SDS011;23740;51.550;6.846;2023-04-24T04:40:17;22.55;;;20.92;;
37907;SDS011;23740;51.550;6.846;2023-04-24T04:42:45;24.60;;;22.35;;
37907;SDS011;23740;51.550;6.846;2023-04-24T04:45:13;23.40;;;21.27;;
37907;SDS011;23740;51.550;6.846;2023-04-24T04:47:43;23.67;;;21.67;;
37907;SDS011;23740;51.550;6.846;2023-04-24T04:50:13;23.75;;;21.48;;
37907;SDS011;23740;51.550;6.846;2023-04-24T04:52:40;23.40;;;21.25;;
37907;SDS011;23740;51.550;6.846;2023-04-24T04:55:08;22.05;;;20.38;;
37907;SDS011;23740;51.550;6.846;2023-04-24T04:57:37;24.45;;;22.00;;
37907;SDS011;23740;51.550;6.846;2023-04-24T05:00:05;22.55;;;20.75;;
37907;SDS011;23740;51.550;6.846;2023-04-24T05:02:37;22.52;;;20.52;;
37907;SDS011;23740;51.550;6.846;2023-04-24T05:05:05;22.05;;;20.38;;
37907;SDS011;23740;51.550;6.846;2023-04-24T05:07:35;24.00;;;21.98;;
37907;SDS011;23740;51.550;6.846;2023-04-24T05:12:31;21.70;;;20.02;;
37907;SDS011;23740;51.550;6.846;2023-04-24T05:14:59;22.33;;;19.92;;
37907;SDS011;23740;51.550;6.846;2023-04-24T05:17:26;21.08;;;19.58;;
37907;SDS011;23740;51.550;6.846;2023-04-24T05:19:54;21.65;;;19.95;;
37907;SDS011;23740;51.550;6.846;2023-04-24T05:22:22;21.67;;;19.83;;
37907;SDS011;23740;51.550;6.846;2023-04-24T05:24:51;21.27;;;19.58;;
37907;SDS011;23740;51.550;6.846;2023-04-24T05:27:19;21.23;;;19.55;;
37907;SDS011;23740;51.550;6.846;2023-04-24T05:29:47;20.33;;;18.83;;
37907;SDS011;23740;51.550;6.846;2023-04-24T05:32:15;20.55;;;18.95;;
37907;SDS011;23740;51.550;6.846;2023-04-24T05:34:43;22.02;;;19.75;;
37907;SDS011;23740;51.550;6.846;2023-04-24T05:37:11;21.98;;;20.17;;
37907;SDS011;23740;51.550;6.846;2023-04-24T05:39:39;20.90;;;19.40;;
37907;SDS011;23740;51.550;6.846;2023-04-24T05:42:10;21.13;;;19.52;;
37907;SDS011;23740;51.550;6.846;2023-04-24T05:44:38;20.50;;;19.10;;
37907;SDS011;23740;51.550;6.846;2023-04-24T05:47:06;20.73;;;18.90;;
37907;SDS011;23740;51.550;6.846;2023-04-24T05:49:34;22.02;;;20.42;;
37907;SDS011;23740;51.550;6.846;2023-04-24T05:52:03;21.77;;;20.08;;
37907;SDS011;23740;51.550;6.846;2023-04-24T05:54:32;21.38;;;19.77;;
37907;SDS011;23740;51.550;6.846;2023-04-24T05:57:00;21.83;;;20.02;;
37907;SDS011;23740;51.550;6.846;2023-04-24T05:59:33;20.55;;;19.05;;
37907;SDS011;23740;51.550;6.846;2023-04-24T06:02:01;21.17;;;19.40;;
37907;SDS011;23740;51.550;6.846;2023-04-24T06:04:29;22.52;;;20.60;;
37907;SDS011;23740;51.550;6.846;2023-04-24T06:06:57;22.10;;;20.50;;
37907;SDS011;23740;51.550;6.846;2023-04-24T06:09:25;21.20;;;19.40;;
37907;SDS011;23740;51.550;6.846;2023-04-24T06:11:53;21.25;;;19.45;;
37907;SDS011;23740;51.550;6.846;2023-04-24T06:14:22;21.83;;;20.23;;
37907;SDS011;23740;51.550;6.846;2023-04-24T06:16:52;22.67;;;21.08;;
37907;SDS011;23740;51.550;6.846;2023-04-24T06:19:20;22.00;;;20.40;;
37907;SDS011;23740;51.550;6.846;2023-04-24T06:21:47;21.90;;;20.23;;
37907;SDS011;23740;51.550;6.846;2023-04-24T06:24:15;23.80;;;21.60;;
37907;SDS011;23740;51.550;6.846;2023-04-24T06:26:43;22.42;;;20.67;;
37907;SDS011;23740;51.550;6.846;2023-04-24T06:29:11;23.25;;;21.52;;
37907;SDS011;23740;51.550;6.846;2023-04-24T06:31:39;22.90;;;21.23;;
37907;SDS011;23740;51.550;6.846;2023-04-24T06:34:08;22.00;;;20.30;;
37907;SDS011;23740;51.550;6.846;2023-04-24T06:36:36;22.17;;;20.38;;
37907;SDS011;23740;51.550;6.846;2023-04-24T06:39:04;21.75;;;20.08;;
37907;SDS011;23740;51.550;6.846;2023-04-24T06:41:33;20.53;;;19.10;;
37907;SDS011;23740;51.550;6.846;2023-04-24T06:44:00;21.65;;;20.15;;
37907;SDS011;23740;51.550;6.846;2023-04-24T06:46:28;21.23;;;19.63;;
37907;SDS011;23740;51.550;6.846;2023-04-24T06:48:56;21.08;;;19.42;;
37907;SDS011;23740;51.550;6.846;2023-04-24T06:51:26;21.58;;;19.95;;
37907;SDS011;23740;51.550;6.846;2023-04-24T06:53:54;22.10;;;20.30;;
37907;SDS011;23740;51.550;6.846;2023-04-24T06:56:22;22.47;;;20.67;;
37907;SDS011;23740;51.550;6.846;2023-04-24T06:58:50;22.05;;;20.35;;
37907;SDS011;23740;51.550;6.846;2023-04-24T07:01:18;21.60;;;20.02;;
37907;SDS011;23740;51.550;6.846;2023-04-24T07:03:46;20.15;;;18.77;;
37907;SDS011;23740;51.550;6.846;2023-04-24T07:06:14;19.85;;;18.38;;
37907;SDS011;23740;51.550;6.846;2023-04-24T07:08:46;19.98;;;18.60;;
37907;SDS011;23740;51.550;6.846;2023-04-24T07:11:15;20.35;;;18.85;;
37907;SDS011;23740;51.550;6.846;2023-04-24T07:13:43;18.88;;;17.58;;
37907;SDS011;23740;51.550;6.846;2023-04-24T07:16:11;19.48;;;18.17;;
37907;SDS011;23740;51.550;6.846;2023-04-24T07:18:39;19.40;;;18.02;;
37907;SDS011;23740;51.550;6.846;2023-04-24T07:21:06;17.55;;;16.55;;
37907;SDS011;23740;51.550;6.846;2023-04-24T07:23:34;19.50;;;18.33;;
37907;SDS011;23740;51.550;6.846;2023-04-24T07:26:03;17.90;;;16.70;;
37907;SDS011;23740;51.550;6.846;2023-04-24T07:28:31;18.58;;;17.48;;
37907;SDS011;23740;51.550;6.846;2023-04-24T07:30:59;18.17;;;17.08;;
37907;SDS011;23740;51.550;6.846;2023-04-24T07:33:27;17.52;;;16.38;;
37907;SDS011;23740;51.550;6.846;2023-04-24T07:35:55;18.60;;;17.10;;
37907;SDS011;23740;51.550;6.846;2023-04-24T07:38:23;18.95;;;17.67;;
37907;SDS011;23740;51.550;6.846;2023-04-24T07:40:52;18.65;;;17.55;;
37907;SDS011;23740;51.550;6.846;2023-04-24T07:43:21;18.85;;;17.45;;
37907;SDS011;23740;51.550;6.846;2023-04-24T07:45:49;17.90;;;16.75;;
37907;SDS011;23740;51.550;6.846;2023-04-24T07:48:17;17.75;;;16.65;;
37907;SDS011;23740;51.550;6.846;2023-04-24T07:50:47;17.30;;;16.20;;
37907;SDS011;23740;51.550;6.846;2023-04-24T07:53:15;17.23;;;16.33;;
37907;SDS011;23740;51.550;6.846;2023-04-24T07:55:43;17.45;;;16.45;;
37907;SDS011;23740;51.550;6.846;2023-04-24T07:58:11;17.33;;;16.33;;
37907;SDS011;23740;51.550;6.846;2023-04-24T08:00:40;17.58;;;16.60;;
37907;SDS011;23740;51.550;6.846;2023-04-24T08:05:36;18.08;;;17.05;;
37907;SDS011;23740;51.550;6.846;2023-04-24T08:08:06;18.35;;;17.25;;
37907;SDS011;23740;51.550;6.846;2023-04-24T08:10:34;17.98;;;16.88;;
37907;SDS011;23740;51.550;6.846;2023-04-24T08:13:02;19.00;;;17.65;;
37907;SDS011;23740;51.550;6.846;2023-04-24T08:15:29;18.40;;;17.27;;
37907;SDS011;23740;51.550;6.846;2023-04-24T08:17:59;19.10;;;17.90;;
37907;SDS011;23740;51.550;6.846;2023-04-24T08:22:54;19.95;;;18.45;;
37907;SDS011;23740;51.550;6.846;2023-04-24T08:25:22;19.60;;;18.30;;
37907;SDS011;23740;51.550;6.846;2023-04-24T08:27:51;18.92;;;17.83;;
37907;SDS011;23740;51.550;6.846;2023-04-24T08:30:18;19.08;;;17.98;;
37907;SDS011;23740;51.550;6.846;2023-04-24T08:32:47;19.30;;;18.13;;
37907;SDS011;23740;51.550;6.846;2023-04-24T08:35:16;19.00;;;17.83;;
37907;SDS011;23740;51.550;6.846;2023-04-24T08:37:44;18.92;;;17.83;;
37907;SDS011;23740;51.550;6.846;2023-04-24T08:40:13;19.25;;;18.10;;
37907;SDS011;23740;51.550;6.846;2023-04-24T08:45:11;18.48;;;17.38;;
37907;SDS011;23740;51.550;6.846;2023-04-24T08:47:39;19.17;;;17.88;;
37907;SDS011;23740;51.550;6.846;2023-04-24T08:50:08;19.27;;;18.08;;
37907;SDS011;23740;51.550;6.846;2023-04-24T08:52:38;19.15;;;18.08;;
37907;SDS011;23740;51.550;6.846;2023-04-24T08:55:08;18.63;;;17.52;;
37907;SDS011;23740;51.550;6.846;2023-04-24T08:57:37;18.33;;;17.33;;
37907;SDS011;23740;51.550;6.846;2023-04-24T09:00:07;18.77;;;17.67;;
37907;SDS011;23740;51.550;6.846;2023-04-24T09:02:38;18.80;;;17.60;;
37907;SDS011;23740;51.550;6.846;2023-04-24T09:05:08;17.80;;;16.80;;
37907;SDS011;23740;51.550;6.846;2023-04-24T09:07:38;18.45;;;17.35;;
37907;SDS011;23740;51.550;6.846;2023-04-24T09:10:07;18.02;;;17.00;;
37907;SDS011;23740;51.550;6.846;2023-04-24T09:12:35;17.98;;;16.80;;
37907;SDS011;23740;51.550;6.846;2023-04-24T09:15:03;18.48;;;17.38;;
37907;SDS011;23740;51.550;6.846;2023-04-24T09:17:32;18.23;;;17.13;;
37907;SDS011;23740;51.550;6.846;2023-04-24T09:20:00;18.27;;;17.25;;
37907;SDS011;23740;51.550;6.846;2023-04-24T09:22:29;18.67;;;17.58;;
37907;SDS011;23740;51.550;6.846;2023-04-24T09:25:03;18.85;;;17.75;;
37907;SDS011;23740;51.550;6.846;2023-04-24T09:27:33;20.25;;;18.95;;
37907;SDS011;23740;51.550;6.846;2023-04-24T09:30:01;19.85;;;18.60;;
37907;SDS011;23740;51.550;6.846;2023-04-24T09:32:29;19.90;;;18.50;;
37907;SDS011;23740;51.550;6.846;2023-04-24T09:35:08;21.42;;;19.98;;
37907;SDS011;23740;51.550;6.846;2023-04-24T09:37:38;19.98;;;18.67;;
37907;SDS011;23740;51.550;6.846;2023-04-24T09:40:14;19.00;;;17.80;;
37907;SDS011;23740;51.550;6.846;2023-04-24T09:42:43;19.55;;;18.17;;
37907;SDS011;23740;51.550;6.846;2023-04-24T09:45:12;19.60;;;18.30;;
37907;SDS011;23740;51.550;6.846;2023-04-24T09:47:41;19.98;;;18.42;;
37907;SDS011;23740;51.550;6.846;2023-04-24T09:50:10;19.83;;;18.52;;
37907;SDS011;23740;51.550;6.846;2023-04-24T09:52:55;21.83;;;20.30;;
37907;SDS011;23740;51.550;6.846;2023-04-24T09:55:27;19.50;;;18.20;;
37907;SDS011;23740;51.550;6.846;2023-04-24T09:57:56;19.45;;;18.15;;
37907;SDS011;23740;51.550;6.846;2023-04-24T10:00:26;19.40;;;18.20;;
37907;SDS011;23740;51.550;6.846;2023-04-24T10:02:56;20.38;;;19.02;;
37907;SDS011;23740;51.550;6.846;2023-04-24T10:05:28;20.55;;;19.15;;
37907;SDS011;23740;51.550;6.846;2023-04-24T10:08:01;21.45;;;19.48;;
37907;SDS011;23740;51.550;6.846;2023-04-24T10:10:32;22.02;;;20.33;;
37907;SDS011;23740;51.550;6.846;2023-04-24T10:13:01;22.02;;;20.35;;
37907;SDS011;23740;51.550;6.846;2023-04-24T10:15:34;22.42;;;20.63;;
37907;SDS011;23740;51.550;6.846;2023-04-24T10:18:04;21.80;;;20.05;;
37907;SDS011;23740;51.550;6.846;2023-04-24T10:20:33;22.55;;;20.77;;
37907;SDS011;23740;51.550;6.846;2023-04-24T10:23:02;22.77;;;21.17;;
37907;SDS011;23740;51.550;6.846;2023-04-24T10:25:32;21.70;;;20.17;;
37907;SDS011;23740;51.550;6.846;2023-04-24T10:28:01;21.58;;;19.70;;
37907;SDS011;23740;51.550;6.846;2023-04-24T10:30:30;21.90;;;20.30;;
37907;SDS011;23740;51.550;6.846;2023-04-24T10:33:01;21.80;;;20.30;;
37907;SDS011;23740;51.550;6.846;2023-04-24T10:35:30;23.00;;;21.05;;
37907;SDS011;23740;51.550;6.846;2023-04-24T10:38:00;23.40;;;21.05;;
37907;SDS011;23740;51.550;6.846;2023-04-24T10:40:35;24.00;;;21.60;;
37907;SDS011;23740;51.550;6.846;2023-04-24T10:43:04;23.05;;;20.73;;
37907;SDS011;23740;51.550;6.846;2023-04-24T10:45:34;21.45;;;19.58;;
37907;SDS011;23740;51.550;6.846;2023-04-24T10:48:02;21.98;;;19.92;;
37907;SDS011;23740;51.550;6.846;2023-04-24T10:50:41;22.15;;;20.45;;
37907;SDS011;23740;51.550;6.846;2023-04-24T10:53:15;23.20;;;21.48;;
37907;SDS011;23740;51.550;6.846;2023-04-24T10:55:46;22.33;;;20.60;;
37907;SDS011;23740;51.550;6.846;2023-04-24T10:58:18;21.58;;;19.52;;
37907;SDS011;23740;51.550;6.846;2023-04-24T11:00:55;22.13;;;20.00;;
37907;SDS011;23740;51.550;6.846;2023-04-24T11:03:25;21.88;;;19.77;;
37907;SDS011;23740;51.550;6.846;2023-04-24T11:05:58;21.92;;;20.17;;
37907;SDS011;23740;51.550;6.846;2023-04-24T11:08:28;22.13;;;20.23;;
37907;SDS011;23740;51.550;6.846;2023-04-24T11:10:59;22.45;;;20.75;;
37907;SDS011;23740;51.550;6.846;2023-04-24T11:16:32;21.75;;;19.58;;
37907;SDS011;23740;51.550;6.846;2023-04-24T11:19:03;21.60;;;19.73;;
37907;SDS011;23740;51.550;6.846;2023-04-24T11:21:36;20.95;;;19.25;;
37907;SDS011;23740;51.550;6.846;2023-04-24T11:24:26;21.45;;;19.60;;
37907;SDS011;23740;51.550;6.846;2023-04-24T11:27:01;20.65;;;18.98;;
37907;SDS011;23740;51.550;6.846;2023-04-24T11:29:40;20.45;;;18.92;;
37907;SDS011;23740;51.550;6.846;2023-04-24T11:32:15;21.63;;;19.38;;
37907;SDS011;23740;51.550;6.846;2023-04-24T11:34:51;21.63;;;19.77;;
37907;SDS011;23740;51.550;6.846;2023-04-24T11:39:49;19.30;;;17.90;;
37907;SDS011;23740;51.550;6.846;2023-04-24T11:42:19;19.77;;;18.17;;
37907;SDS011;23740;51.550;6.846;2023-04-24T11:44:48;20.83;;;18.08;;
37907;SDS011;23740;51.550;6.846;2023-04-24T11:47:16;19.80;;;18.05;;
37907;SDS011;23740;51.550;6.846;2023-04-24T11:49:45;19.35;;;17.95;;
37907;SDS011;23740;51.550;6.846;2023-04-24T11:52:15;20.10;;;17.90;;
37907;SDS011;23740;51.550;6.846;2023-04-24T11:54:46;20.15;;;18.70;;
37907;SDS011;23740;51.550;6.846;2023-04-24T11:57:15;20.10;;;18.33;;
37907;SDS011;23740;51.550;6.846;2023-04-24T11:59:46;20.33;;;18.48;;
37907;SDS011;23740;51.550;6.846;2023-04-24T12:04:47;19.17;;;17.73;;
37907;SDS011;23740;51.550;6.846;2023-04-24T12:07:16;19.95;;;18.40;;
37907;SDS011;23740;51.550;6.846;2023-04-24T12:09:44;17.90;;;16.67;;
37907;SDS011;23740;51.550;6.846;2023-04-24T12:12:14;19.23;;;17.55;;
37907;SDS011;23740;51.550;6.846;2023-04-24T12:14:43;19.35;;;17.60;;
37907;SDS011;23740;51.550;6.846;2023-04-24T12:19:44;18.60;;;17.02;;
37907;SDS011;23740;51.550;6.846;2023-04-24T12:22:13;18.90;;;17.50;;
37907;SDS011;23740;51.550;6.846;2023-04-24T12:24:57;19.30;;;18.00;;
37907;SDS011;23740;51.550;6.846;2023-04-24T12:27:28;19.30;;;17.80;;
37907;SDS011;23740;51.550;6.846;2023-04-24T12:29:57;19.40;;;18.20;;
37907;SDS011;23740;51.550;6.846;2023-04-24T12:32:27;19.30;;;18.05;;
37907;SDS011;23740;51.550;6.846;2023-04-24T12:34:55;18.40;;;17.30;;
37907;SDS011;23740;51.550;6.846;2023-04-24T12:37:24;18.60;;;17.30;;
37907;SDS011;23740;51.550;6.846;2023-04-24T12:39:59;20.02;;;18.42;;
37907;SDS011;23740;51.550;6.846;2023-04-24T12:42:31;18.77;;;17.40;;
37907;SDS011;23740;51.550;6.846;2023-04-24T12:44:59;18.40;;;17.20;;
37907;SDS011;23740;51.550;6.846;2023-04-24T12:47:29;18.80;;;17.20;;
37907;SDS011;23740;51.550;6.846;2023-04-24T12:49:58;18.15;;;16.98;;
37907;SDS011;23740;51.550;6.846;2023-04-24T12:52:27;17.57;;;16.47;;
37907;SDS011;23740;51.550;6.846;2023-04-24T12:54:56;17.50;;;16.40;;
37907;SDS011;23740;51.550;6.846;2023-04-24T12:57:25;18.17;;;16.92;;
37907;SDS011;23740;51.550;6.846;2023-04-24T12:59:53;18.13;;;17.10;;
37907;SDS011;23740;51.550;6.846;2023-04-24T13:02:21;17.83;;;16.83;;
37907;SDS011;23740;51.550;6.846;2023-04-24T13:04:52;18.70;;;17.50;;
37907;SDS011;23740;51.550;6.846;2023-04-24T13:07:20;18.50;;;17.30;;
37907;SDS011;23740;51.550;6.846;2023-04-24T13:09:48;18.52;;;17.42;;
37907;SDS011;23740;51.550;6.846;2023-04-24T13:12:16;19.65;;;18.13;;
37907;SDS011;23740;51.550;6.846;2023-04-24T13:14:45;18.90;;;17.60;;
37907;SDS011;23740;51.550;6.846;2023-04-24T13:17:13;17.98;;;16.98;;
37907;SDS011;23740;51.550;6.846;2023-04-24T13:19:42;19.08;;;17.88;;
37907;SDS011;23740;51.550;6.846;2023-04-24T13:22:12;18.23;;;16.70;;
37907;SDS011;23740;51.550;6.846;2023-04-24T13:24:40;18.67;;;17.38;;
37907;SDS011;23740;51.550;6.846;2023-04-24T13:27:08;18.77;;;17.67;;
37907;SDS011;23740;51.550;6.846;2023-04-24T13:29:36;17.98;;;16.95;;
37907;SDS011;23740;51.550;6.846;2023-04-24T13:32:05;18.38;;;17.17;;
37907;SDS011;23740;51.550;6.846;2023-04-24T13:34:33;19.50;;;18.10;;
37907;SDS011;23740;51.550;6.846;2023-04-24T13:37:02;19.08;;;17.77;;
37907;SDS011;23740;51.550;6.846;2023-04-24T13:39:31;18.33;;;17.23;;
37907;SDS011;23740;51.550;6.846;2023-04-24T13:44:30;18.88;;;17.38;;
37907;SDS011;23740;51.550;6.846;2023-04-24T13:46:58;18.80;;;17.38;;
37907;SDS011;23740;51.550;6.846;2023-04-24T13:49:26;18.05;;;16.98;;
37907;SDS011;23740;51.550;6.846;2023-04-24T13:51:55;18.85;;;17.55;;
37907;SDS011;23740;51.550;6.846;2023-04-24T13:54:23;18.35;;;17.02;;
37907;SDS011;23740;51.550;6.846;2023-04-24T13:59:23;18.33;;;17.10;;
37907;SDS011;23740;51.550;6.846;2023-04-24T14:01:51;18.20;;;17.10;;
37907;SDS011;23740;51.550;6.846;2023-04-24T14:04:19;18.40;;;17.17;;
37907;SDS011;23740;51.550;6.846;2023-04-24T14:06:47;17.65;;;16.55;;
37907;SDS011;23740;51.550;6.846;2023-04-24T14:09:15;17.48;;;16.35;;
37907;SDS011;23740;51.550;6.846;2023-04-24T14:11:42;18.17;;;16.83;;
37907;SDS011;23740;51.550;6.846;2023-04-24T14:14:12;17.65;;;16.55;;
37907;SDS011;23740;51.550;6.846;2023-04-24T14:19:07;17.20;;;16.10;;
37907;SDS011;23740;51.550;6.846;2023-04-24T14:21:35;18.17;;;16.95;;
37907;SDS011;23740;51.550;6.846;2023-04-24T14:24:03;18.20;;;16.95;;
37907;SDS011;23740;51.550;6.846;2023-04-24T14:26:30;18.70;;;17.25;;
37907;SDS011;23740;51.550;6.846;2023-04-24T14:28:58;18.40;;;17.30;;
37907;SDS011;23740;51.550;6.846;2023-04-24T14:31:41;18.05;;;16.95;;
37907;SDS011;23740;51.550;6.846;2023-04-24T14:34:09;19.52;;;18.15;;
37907;SDS011;23740;51.550;6.846;2023-04-24T14:36:36;19.30;;;17.80;;
37907;SDS011;23740;51.550;6.846;2023-04-24T14:39:05;19.13;;;17.90;;
37907;SDS011;23740;51.550;6.846;2023-04-24T14:41:33;18.38;;;17.10;;
37907;SDS011;23740;51.550;6.846;2023-04-24T14:44:03;19.23;;;17.80;;
37907;SDS011;23740;51.550;6.846;2023-04-24T14:46:31;19.58;;;18.27;;
37907;SDS011;23740;51.550;6.846;2023-04-24T14:49:01;19.65;;;18.30;;
37907;SDS011;23740;51.550;6.846;2023-04-24T14:53:57;18.20;;;16.95;;
37907;SDS011;23740;51.550;6.846;2023-04-24T14:56:25;18.08;;;17.05;;
37907;SDS011;23740;51.550;6.846;2023-04-24T14:58:53;18.88;;;17.77;;
37907;SDS011;23740;51.550;6.846;2023-04-24T15:01:22;17.55;;;16.40;;
37907;SDS011;23740;51.550;6.846;2023-04-24T15:03:51;17.60;;;16.60;;
37907;SDS011;23740;51.550;6.846;2023-04-24T15:06:21;16.88;;;15.98;;
37907;SDS011;23740;51.550;6.846;2023-04-24T15:11:17;16.98;;;16.08;;
37907;SDS011;23740;51.550;6.846;2023-04-24T15:13:47;16.65;;;15.75;;
37907;SDS011;23740;51.550;6.846;2023-04-24T15:16:15;16.88;;;15.88;;